createdAt,value
2022-07-30T00:01:44.082Z,7.10
2022-07-30T00:04:11.858Z,9.20
2022-07-30T00:06:40.098Z,9.82
2022-07-30T00:09:07.782Z,6.03
2022-07-30T00:11:35.555Z,7.68
2022-07-30T00:14:03.240Z,7.90
2022-07-30T00:16:30.884Z,8.40
2022-07-30T00:18:58.672Z,8.13
2022-07-30T00:21:36.381Z,8.55
2022-07-30T00:24:08.719Z,7.03
2022-07-30T00:26:36.318Z,7.72
2022-07-30T00:29:04.969Z,10.15
2022-07-30T00:31:33.029Z,7.82
2022-07-30T00:34:00.535Z,7.32
2022-07-30T00:36:28.247Z,9.65
2022-07-30T00:38:56.191Z,9.40
2022-07-30T00:41:24.035Z,8.27
2022-07-30T00:43:51.688Z,9.30
2022-07-30T00:46:19.716Z,8.20
2022-07-30T00:48:47.328Z,7.37
2022-07-30T00:51:14.979Z,7.87
2022-07-30T00:53:42.737Z,8.50
2022-07-30T00:56:10.344Z,6.93
2022-07-30T00:58:37.837Z,9.05
2022-07-30T01:01:06.714Z,7.62
2022-07-30T01:03:34.445Z,9.02
2022-07-30T01:06:01.976Z,7.30
2022-07-30T01:08:29.900Z,8.25
2022-07-30T01:10:57.402Z,9.90
2022-07-30T01:13:24.845Z,6.55
2022-07-30T01:15:52.695Z,9.07
2022-07-30T01:18:21.424Z,8.65
2022-07-30T01:21:05.774Z,8.38
2022-07-30T01:23:43.219Z,8.70
2022-07-30T01:26:18.368Z,10.85
2022-07-30T01:28:49.511Z,9.13
2022-07-30T01:31:17.412Z,7.50
2022-07-30T01:33:47.793Z,8.32
2022-07-30T01:36:17.525Z,8.18
2022-07-30T01:38:46.385Z,7.37
2022-07-30T01:41:15.064Z,8.25
2022-07-30T01:43:43.723Z,10.10
2022-07-30T01:46:12.311Z,9.02
2022-07-30T01:48:41.493Z,7.93
2022-07-30T01:51:11.980Z,9.05
2022-07-30T01:53:41.736Z,7.28
2022-07-30T01:56:12.197Z,8.02
2022-07-30T01:58:41.693Z,9.15
2022-07-30T02:01:09.704Z,9.55
2022-07-30T02:03:38.054Z,8.93
2022-07-30T02:06:21.534Z,7.30
2022-07-30T02:08:54.788Z,9.73
2022-07-30T02:11:42.455Z,9.45
2022-07-30T02:14:21.937Z,17.50
2022-07-30T02:16:54.413Z,7.55
2022-07-30T02:19:25.165Z,7.68
2022-07-30T02:22:05.549Z,8.07
2022-07-30T02:24:37.569Z,9.20
2022-07-30T02:27:14.405Z,8.23
2022-07-30T02:29:44.580Z,8.25
2022-07-30T02:32:15.267Z,9.82
2022-07-30T02:34:43.899Z,7.07
2022-07-30T02:37:12.495Z,15.32
2022-07-30T02:39:42.850Z,9.32
2022-07-30T02:42:13.138Z,8.23
2022-07-30T02:44:42.765Z,8.05
2022-07-30T02:47:13.693Z,6.35
2022-07-30T02:49:43.455Z,8.77
2022-07-30T02:52:13.621Z,9.07
2022-07-30T02:54:42.770Z,7.07
2022-07-30T02:57:10.962Z,9.73
2022-07-30T02:59:41.441Z,7.37
2022-07-30T03:02:09.714Z,7.75
2022-07-30T03:04:38.317Z,9.00
2022-07-30T03:07:08.653Z,12.00
2022-07-30T03:09:52.078Z,6.32
2022-07-30T03:12:22.051Z,7.37
2022-07-30T03:14:52.257Z,8.75
2022-07-30T03:17:20.255Z,8.60
2022-07-30T03:19:48.840Z,7.45
2022-07-30T03:22:18.460Z,7.50
2022-07-30T03:24:47.208Z,7.57
2022-07-30T03:27:16.380Z,7.72
2022-07-30T03:29:45.876Z,7.70
2022-07-30T03:32:15.001Z,8.23
2022-07-30T03:34:43.708Z,10.23
2022-07-30T03:37:12.600Z,7.72
2022-07-30T03:39:40.760Z,7.28
2022-07-30T03:42:09.022Z,7.87
2022-07-30T03:44:39.161Z,6.50
2022-07-30T03:47:08.057Z,6.40
2022-07-30T03:49:37.240Z,7.90
2022-07-30T03:52:06.581Z,9.60
2022-07-30T03:54:35.544Z,7.53
2022-07-30T03:57:05.118Z,8.95
2022-07-30T03:59:33.343Z,5.85
2022-07-30T04:02:05.924Z,10.15
2022-07-30T04:04:36.850Z,7.82
2022-07-30T04:07:04.661Z,7.10
2022-07-30T04:09:32.280Z,7.07
2022-07-30T04:12:06.940Z,8.18
2022-07-30T04:14:42.391Z,7.47
2022-07-30T04:17:14.074Z,6.68
2022-07-30T04:19:46.809Z,8.32
2022-07-30T04:22:17.331Z,8.45
2022-07-30T04:24:45.273Z,5.90
2022-07-30T04:27:12.919Z,7.82
2022-07-30T04:29:40.947Z,8.50
2022-07-30T04:32:09.712Z,6.37
2022-07-30T04:34:47.465Z,7.20
2022-07-30T04:37:17.232Z,8.02
2022-07-30T04:39:44.957Z,12.02
2022-07-30T04:42:12.767Z,7.10
2022-07-30T04:44:41.510Z,7.87
2022-07-30T04:47:10.865Z,9.10
2022-07-30T04:49:41.026Z,6.57
2022-07-30T04:52:09.420Z,7.40
2022-07-30T04:54:58.279Z,6.55
2022-07-30T04:57:26.735Z,8.75
2022-07-30T04:59:54.447Z,7.62
2022-07-30T05:02:23.973Z,6.97
2022-07-30T05:04:52.277Z,6.90
2022-07-30T05:07:22.408Z,6.85
2022-07-30T05:09:50.469Z,8.75
2022-07-30T05:12:18.272Z,7.62
2022-07-30T05:14:48.318Z,8.35
2022-07-30T05:17:16.514Z,7.30
2022-07-30T05:19:44.470Z,6.87
2022-07-30T05:22:12.067Z,7.75
2022-07-30T05:24:41.006Z,8.05
2022-07-30T05:27:08.891Z,6.68
2022-07-30T05:29:36.416Z,6.80
2022-07-30T05:32:07.533Z,7.00
2022-07-30T05:34:35.643Z,6.25
2022-07-30T05:37:03.933Z,8.05
2022-07-30T05:39:32.361Z,8.63
2022-07-30T05:42:01.691Z,6.37
2022-07-30T05:44:29.291Z,6.62
2022-07-30T05:46:56.774Z,7.30
2022-07-30T05:49:24.826Z,6.80
2022-07-30T05:51:52.722Z,8.65
2022-07-30T05:54:20.230Z,7.45
2022-07-30T05:56:51.854Z,9.18
2022-07-30T05:59:20.666Z,7.53
2022-07-30T06:01:49.452Z,7.40
2022-07-30T06:04:17.838Z,7.90
2022-07-30T06:06:45.481Z,10.18
2022-07-30T06:09:13.463Z,8.63
2022-07-30T06:11:41.789Z,8.63
2022-07-30T06:14:09.737Z,7.62
2022-07-30T06:16:37.835Z,8.38
2022-07-30T06:19:06.218Z,8.93
2022-07-30T06:22:01.772Z,6.75
2022-07-30T06:24:23.329Z,7.07
2022-07-30T06:26:57.662Z,7.33
2022-07-30T06:29:25.895Z,6.53
2022-07-30T06:31:53.502Z,7.75
2022-07-30T06:34:21.753Z,9.10
2022-07-30T06:36:49.713Z,7.22
2022-07-30T06:39:53.749Z,7.68
2022-07-30T06:42:08.133Z,7.20
2022-07-30T06:44:38.982Z,8.35
2022-07-30T06:47:08.386Z,9.13
2022-07-30T06:49:36.647Z,7.60
2022-07-30T06:52:04.845Z,7.43
2022-07-30T06:54:33.286Z,6.97
2022-07-30T06:57:04.384Z,7.43
2022-07-30T06:59:32.402Z,9.90
2022-07-30T07:02:20.655Z,7.03
2022-07-30T07:04:48.979Z,7.40
2022-07-30T07:07:26.982Z,8.13
2022-07-30T07:10:05.542Z,10.27
2022-07-30T07:12:35.782Z,7.55
2022-07-30T07:15:03.868Z,7.47
2022-07-30T07:17:31.997Z,8.05
2022-07-30T07:20:02.778Z,9.52
2022-07-30T07:22:31.448Z,8.98
2022-07-30T07:24:59.238Z,8.32
2022-07-30T07:27:27.022Z,8.48
2022-07-30T07:30:01.582Z,7.37
2022-07-30T07:32:35.223Z,10.05
2022-07-30T07:35:03.460Z,8.18
2022-07-30T07:37:31.430Z,8.43
2022-07-30T07:39:59.524Z,9.25
2022-07-30T07:42:27.412Z,9.02
2022-07-30T07:44:55.236Z,10.18
2022-07-30T07:47:23.603Z,10.05
2022-07-30T07:49:56.539Z,9.38
2022-07-30T07:52:24.516Z,8.65
2022-07-30T07:54:52.646Z,8.25
2022-07-30T07:57:20.323Z,6.95
2022-07-30T07:59:48.892Z,9.52
2022-07-30T08:02:18.314Z,7.65
2022-07-30T08:04:46.959Z,10.20
2022-07-30T08:07:16.066Z,6.95
2022-07-30T08:09:46.160Z,8.52
2022-07-30T08:12:14.318Z,8.07
2022-07-30T08:14:45.004Z,7.20
2022-07-30T08:17:14.825Z,8.18
2022-07-30T08:19:46.034Z,9.60
2022-07-30T08:22:16.712Z,7.05
2022-07-30T08:24:44.514Z,7.70
2022-07-30T08:27:12.059Z,8.80
2022-07-30T08:29:39.699Z,10.27
2022-07-30T08:32:07.548Z,7.65
2022-07-30T08:34:35.682Z,10.90
2022-07-30T08:37:03.594Z,6.95
2022-07-30T08:39:31.385Z,11.40
2022-07-30T08:42:00.624Z,9.43
2022-07-30T08:44:29.130Z,9.05
2022-07-30T08:46:57.415Z,8.63
2022-07-30T08:49:25.376Z,7.68
2022-07-30T08:51:53.070Z,10.23
2022-07-30T08:54:22.086Z,8.43
2022-07-30T08:56:50.113Z,9.05
2022-07-30T08:59:18.074Z,7.10
2022-07-30T09:01:45.865Z,8.23
2022-07-30T09:04:14.366Z,7.75
2022-07-30T09:06:42.845Z,8.60
2022-07-30T09:09:10.924Z,8.80
2022-07-30T09:11:38.427Z,9.25
2022-07-30T09:14:13.627Z,9.80
2022-07-30T09:16:43.991Z,8.85
2022-07-30T09:19:13.455Z,9.98
2022-07-30T09:21:41.731Z,9.75
2022-07-30T09:24:12.271Z,10.85
2022-07-30T09:26:57.250Z,11.40
2022-07-30T09:29:33.060Z,9.57
2022-07-30T09:32:15.464Z,10.98
2022-07-30T09:34:50.863Z,12.40
2022-07-30T09:37:20.177Z,10.07
2022-07-30T09:39:59.055Z,10.40
2022-07-30T09:42:29.025Z,16.50
2022-07-30T09:45:15.960Z,17.52
2022-07-30T09:47:45.270Z,18.10
2022-07-30T09:50:17.880Z,16.80
2022-07-30T09:53:09.461Z,11.02
2022-07-30T09:55:41.268Z,18.02
2022-07-30T09:58:12.715Z,15.73
2022-07-30T10:00:45.102Z,15.57
2022-07-30T10:03:21.985Z,15.07
2022-07-30T10:06:33.589Z,13.62
2022-07-30T10:09:01.801Z,11.20
2022-07-30T10:11:42.161Z,19.85
2022-07-30T10:14:10.267Z,10.77
2022-07-30T10:16:38.066Z,14.02
2022-07-30T10:19:07.100Z,12.88
2022-07-30T10:21:43.872Z,12.50
2022-07-30T10:24:17.668Z,14.18
2022-07-30T10:26:57.786Z,10.98
2022-07-30T10:29:33.451Z,11.75
2022-07-30T10:32:02.543Z,13.30
2022-07-30T10:34:34.239Z,13.50
2022-07-30T10:37:06.878Z,12.45
2022-07-30T10:39:44.040Z,12.57
2022-07-30T10:42:57.912Z,14.27
2022-07-30T10:46:02.921Z,12.63
2022-07-30T10:48:34.776Z,14.55
2022-07-30T10:51:02.499Z,11.43
2022-07-30T10:53:45.869Z,13.00
2022-07-30T10:56:25.727Z,15.55
2022-07-30T10:59:11.591Z,11.82
2022-07-30T11:01:51.752Z,11.90
2022-07-30T11:04:29.634Z,15.00
2022-07-30T11:07:23.590Z,12.00
2022-07-30T11:10:04.306Z,10.77
2022-07-30T11:12:44.103Z,14.82
2022-07-30T11:15:18.548Z,10.93
2022-07-30T11:18:12.383Z,9.05
2022-07-30T11:20:48.264Z,9.10
2022-07-30T11:23:19.347Z,10.82
2022-07-30T11:25:51.239Z,10.40
2022-07-30T11:28:42.979Z,10.23
2022-07-30T11:31:59.376Z,11.35
2022-07-30T11:34:19.473Z,8.23
2022-07-30T11:37:19.246Z,10.00
2022-07-30T11:39:56.337Z,11.10
2022-07-30T11:42:37.338Z,10.45
2022-07-30T11:45:18.135Z,8.13
2022-07-30T11:47:50.527Z,12.02
2022-07-30T11:50:24.232Z,9.25
2022-07-30T11:53:05.506Z,9.43
2022-07-30T11:55:35.124Z,9.45
2022-07-30T11:58:06.024Z,10.48
2022-07-30T12:00:39.791Z,9.25
2022-07-30T12:03:18.443Z,9.88
2022-07-30T12:05:52.545Z,10.40
2022-07-30T12:08:35.416Z,10.15
2022-07-30T12:11:03.746Z,8.13
2022-07-30T12:13:45.273Z,10.48
2022-07-30T12:16:16.439Z,9.15
2022-07-30T12:18:45.350Z,8.07
2022-07-30T12:21:13.766Z,8.95
2022-07-30T12:23:44.423Z,8.70
2022-07-30T12:26:32.143Z,8.02
2022-07-30T12:29:04.899Z,7.07
2022-07-30T12:31:38.526Z,6.87
2022-07-30T12:36:46.690Z,6.90
2022-07-30T12:39:20.589Z,6.00
2022-07-30T12:41:50.627Z,4.12
2022-07-30T12:44:41.939Z,4.97
2022-07-30T12:47:26.092Z,4.95
2022-07-30T12:49:54.746Z,5.10
2022-07-30T12:52:27.692Z,6.37
2022-07-30T12:55:05.949Z,5.60
2022-07-30T12:58:02.862Z,4.93
2022-07-30T13:00:43.713Z,4.50
2022-07-30T13:03:20.573Z,4.80
2022-07-30T13:05:50.332Z,4.80
2022-07-30T13:08:18.657Z,6.10
2022-07-30T13:11:02.024Z,4.20
2022-07-30T13:13:31.144Z,5.03
2022-07-30T13:16:03.011Z,5.43
2022-07-30T13:18:31.663Z,4.82
2022-07-30T13:20:59.801Z,4.35
2022-07-30T13:23:27.767Z,5.62
2022-07-30T13:25:56.200Z,4.68
2022-07-30T13:28:24.032Z,3.40
2022-07-30T13:30:52.019Z,5.53
2022-07-30T13:33:20.076Z,3.70
2022-07-30T13:35:48.608Z,5.60
2022-07-30T13:38:16.150Z,5.20
2022-07-30T13:40:44.077Z,4.97
2022-07-30T13:43:11.659Z,3.12
2022-07-30T13:45:39.272Z,3.20
2022-07-30T13:48:07.321Z,4.03
2022-07-30T13:50:34.886Z,3.70
2022-07-30T13:53:02.812Z,3.90
2022-07-30T13:55:30.760Z,4.22
2022-07-30T13:57:58.628Z,3.12
2022-07-30T14:00:32.279Z,1.42
2022-07-30T14:03:06.462Z,1.33
2022-07-30T14:08:12.053Z,2.97
2022-07-30T14:10:40.260Z,2.65
2022-07-30T14:13:09.705Z,2.40
2022-07-30T14:15:39.050Z,2.35
2022-07-30T14:18:08.453Z,3.33
2022-07-30T14:20:36.465Z,2.30
2022-07-30T14:23:04.233Z,2.75
2022-07-30T14:25:31.781Z,3.20
2022-07-30T14:27:59.246Z,3.05
2022-07-30T14:30:27.551Z,4.35
2022-07-30T14:32:59.414Z,3.25
2022-07-30T14:35:30.661Z,3.30
2022-07-30T14:37:58.346Z,3.28
2022-07-30T14:40:25.853Z,4.50
2022-07-30T14:42:56.070Z,3.15
2022-07-30T14:45:23.846Z,3.70
2022-07-30T14:47:53.535Z,6.40
2022-07-30T14:50:21.205Z,3.42
2022-07-30T14:52:49.461Z,3.72
2022-07-30T14:55:17.458Z,3.83
2022-07-30T14:57:45.012Z,3.92
2022-07-30T15:00:12.884Z,3.05
2022-07-30T15:02:41.087Z,5.40
2022-07-30T15:05:09.172Z,4.12
2022-07-30T15:07:37.996Z,3.62
2022-07-30T15:10:07.422Z,4.15
2022-07-30T15:12:35.178Z,3.45
2022-07-30T15:15:06.155Z,3.85
2022-07-30T15:17:37.573Z,4.12
2022-07-30T15:20:07.813Z,3.45
2022-07-30T15:22:36.094Z,3.42
2022-07-30T15:25:03.977Z,3.62
2022-07-30T15:27:34.016Z,2.65
2022-07-30T15:30:02.530Z,3.40
2022-07-30T15:32:30.341Z,3.00
2022-07-30T15:34:58.803Z,3.65
2022-07-30T15:37:26.643Z,3.40
2022-07-30T15:39:54.130Z,3.83
2022-07-30T15:42:21.657Z,3.40
2022-07-30T15:45:14.312Z,2.97
2022-07-30T15:47:37.334Z,5.62
2022-07-30T15:50:05.885Z,2.87
2022-07-30T15:52:35.863Z,3.37
2022-07-30T15:55:04.912Z,3.47
2022-07-30T15:57:32.793Z,3.30
2022-07-30T16:00:00.443Z,4.20
2022-07-30T16:02:28.084Z,4.55
2022-07-30T16:04:55.850Z,2.65
2022-07-30T16:07:23.375Z,2.60
2022-07-30T16:09:50.908Z,5.03
2022-07-30T16:12:18.733Z,2.78
2022-07-30T16:14:46.237Z,3.17
2022-07-30T16:17:14.986Z,3.67
2022-07-30T16:19:45.122Z,4.55
2022-07-30T16:22:15.774Z,3.28
2022-07-30T16:24:50.059Z,3.58
2022-07-30T16:27:17.728Z,4.62
2022-07-30T16:29:45.246Z,2.62
2022-07-30T16:32:13.012Z,3.78
2022-07-30T16:34:40.506Z,3.80
2022-07-30T16:37:08.018Z,4.18
2022-07-30T16:39:35.827Z,3.10
2022-07-30T16:42:04.677Z,3.37
2022-07-30T16:44:34.137Z,2.65
2022-07-30T16:47:02.129Z,3.10
2022-07-30T16:49:30.403Z,3.00
2022-07-30T16:51:57.978Z,3.25
2022-07-30T16:54:25.959Z,3.42
2022-07-30T16:56:53.493Z,3.62
2022-07-30T16:59:21.726Z,6.22
2022-07-30T17:01:49.631Z,4.07
2022-07-30T17:04:17.705Z,4.68
2022-07-30T17:06:45.163Z,3.85
2022-07-30T17:09:15.786Z,3.55
2022-07-30T17:11:47.358Z,3.58
2022-07-30T17:14:22.232Z,3.60
2022-07-30T17:16:50.257Z,5.60
2022-07-30T17:19:17.840Z,4.97
2022-07-30T17:21:45.592Z,5.43
2022-07-30T17:24:13.805Z,4.57
2022-07-30T17:26:46.742Z,4.15
2022-07-30T17:29:15.838Z,3.70
2022-07-30T17:31:44.666Z,4.90
2022-07-30T17:34:15.063Z,5.10
2022-07-30T17:36:44.313Z,5.15
2022-07-30T17:40:04.322Z,10.23
2022-07-30T17:42:11.725Z,4.10
2022-07-30T17:44:41.886Z,3.25
2022-07-30T17:47:14.487Z,4.15
2022-07-30T17:49:43.039Z,5.47
2022-07-30T17:52:10.596Z,5.72
2022-07-30T17:54:38.261Z,4.28
2022-07-30T17:57:06.066Z,3.80
2022-07-30T17:59:33.647Z,3.50
2022-07-30T18:02:01.478Z,3.90
2022-07-30T18:04:29.519Z,3.47
2022-07-30T18:06:57.042Z,3.83
2022-07-30T18:09:24.929Z,4.32
2022-07-30T18:11:53.264Z,5.37
2022-07-30T18:14:21.765Z,4.18
2022-07-30T18:16:50.010Z,4.45
2022-07-30T18:19:22.896Z,4.20
2022-07-30T18:21:55.195Z,4.72
2022-07-30T18:24:24.741Z,5.10
2022-07-30T18:26:52.668Z,5.40
2022-07-30T18:29:20.900Z,5.43
2022-07-30T18:31:48.985Z,4.35
2022-07-30T18:34:16.566Z,5.47
2022-07-30T18:36:44.413Z,5.25
2022-07-30T18:39:12.380Z,4.00
2022-07-30T18:41:39.961Z,5.05
2022-07-30T18:44:07.462Z,4.75
2022-07-30T18:46:35.339Z,4.20
2022-07-30T18:49:20.991Z,5.22
2022-07-30T18:51:50.774Z,5.55
2022-07-30T18:54:18.307Z,4.05
2022-07-30T18:56:45.920Z,4.00
2022-07-30T18:59:13.685Z,5.05
2022-07-30T19:01:41.445Z,5.00
2022-07-30T19:04:10.983Z,4.60
2022-07-30T19:06:39.988Z,4.43
2022-07-30T19:09:16.834Z,6.43
2022-07-30T19:11:46.083Z,6.75
2022-07-30T19:14:14.317Z,4.95
2022-07-30T19:16:43.284Z,5.53
2022-07-30T19:19:13.491Z,4.85
2022-07-30T19:21:41.579Z,4.97
2022-07-30T19:24:10.497Z,4.75
2022-07-30T19:26:39.827Z,5.10
2022-07-30T19:29:10.333Z,6.07
2022-07-30T19:31:41.591Z,5.15
2022-07-30T19:34:10.920Z,4.87
2022-07-30T19:36:39.725Z,7.80
2022-07-30T19:39:08.240Z,5.35
2022-07-30T19:41:40.767Z,5.22
2022-07-30T19:44:10.562Z,5.20
2022-07-30T19:46:38.852Z,5.70
2022-07-30T19:49:12.328Z,5.90
2022-07-30T19:52:11.007Z,6.03
2022-07-30T19:54:28.200Z,5.90
2022-07-30T19:56:55.746Z,6.03
2022-07-30T19:59:45.482Z,7.78
2022-07-30T20:02:13.683Z,5.55
2022-07-30T20:04:43.604Z,5.47
2022-07-30T20:07:12.449Z,6.70
2022-07-30T20:09:42.842Z,6.28
2022-07-30T20:12:12.870Z,6.03
2022-07-30T20:14:43.458Z,6.30
2022-07-30T20:17:11.610Z,6.18
2022-07-30T20:19:47.408Z,5.60
2022-07-30T20:22:16.483Z,5.87
2022-07-30T20:24:45.516Z,7.03
2022-07-30T20:27:37.309Z,7.57
2022-07-30T20:30:01.576Z,6.70
2022-07-30T20:32:29.639Z,7.90
2022-07-30T20:34:57.317Z,6.07
2022-07-30T20:37:27.339Z,7.80
2022-07-30T20:42:43.286Z,9.00
2022-07-30T20:45:12.257Z,5.60
2022-07-30T20:47:40.909Z,7.25
2022-07-30T20:50:10.431Z,6.47
2022-07-30T20:52:40.402Z,6.35
2022-07-30T20:55:09.587Z,6.22
2022-07-30T20:57:56.938Z,5.85
2022-07-30T21:00:28.771Z,7.47
2022-07-30T21:02:56.547Z,6.28
2022-07-30T21:05:27.133Z,8.07
2022-07-30T21:07:56.416Z,7.95
2022-07-30T21:10:25.939Z,6.90
2022-07-30T21:13:03.217Z,6.95
2022-07-30T21:15:32.909Z,6.70
2022-07-30T21:18:01.450Z,8.13
2022-07-30T21:20:30.753Z,11.30
2022-07-30T21:23:06.359Z,7.28
2022-07-30T21:26:03.011Z,8.65
2022-07-30T21:28:29.288Z,7.28
2022-07-30T21:30:57.409Z,6.85
2022-07-30T21:33:27.040Z,5.95
2022-07-30T21:35:59.702Z,7.43
2022-07-30T21:38:28.562Z,7.10
2022-07-30T21:40:56.319Z,6.57
2022-07-30T21:43:30.130Z,5.95
2022-07-30T21:45:59.042Z,7.57
2022-07-30T21:48:28.066Z,5.60
2022-07-30T21:50:56.538Z,5.35
2022-07-30T21:53:29.428Z,5.18
2022-07-30T21:56:12.671Z,5.43
2022-07-30T21:58:40.173Z,6.82
2022-07-30T22:01:16.738Z,6.95
2022-07-30T22:04:01.460Z,5.50
2022-07-30T22:06:39.248Z,6.28
2022-07-30T22:09:19.674Z,6.32
2022-07-30T22:12:00.866Z,6.12
2022-07-30T22:14:29.803Z,6.62
2022-07-30T22:16:58.962Z,6.65
2022-07-30T22:19:26.544Z,6.40
2022-07-30T22:21:55.421Z,6.05
2022-07-30T22:24:28.707Z,5.43
2022-07-30T22:27:10.820Z,6.57
2022-07-30T22:29:43.244Z,6.47
2022-07-30T22:32:12.025Z,6.87
2022-07-30T22:34:39.582Z,5.32
2022-07-30T22:37:12.676Z,6.32
2022-07-30T22:39:50.856Z,5.72
2022-07-30T22:42:24.347Z,5.12
2022-07-30T22:44:54.593Z,6.65
2022-07-30T22:47:50.896Z,5.93
2022-07-30T22:50:11.685Z,5.82
2022-07-30T22:52:53.525Z,5.28
2022-07-30T22:55:28.504Z,6.57
2022-07-30T22:57:57.219Z,8.27
2022-07-30T23:00:28.185Z,4.47
2022-07-30T23:02:56.925Z,7.47
2022-07-30T23:05:25.294Z,8.27
2022-07-30T23:07:53.776Z,7.35
2022-07-30T23:10:21.556Z,5.75
2022-07-30T23:12:19.636Z,6.75
2022-07-30T23:12:52.539Z,7.10
2022-07-30T23:15:20.967Z,6.60
2022-07-30T23:17:48.723Z,8.45
2022-07-30T23:20:18.395Z,8.18
2022-07-30T23:22:46.256Z,7.68
2022-07-30T23:25:14.085Z,9.48
2022-07-30T23:27:42.225Z,7.50
2022-07-30T23:30:10.932Z,7.28
2022-07-30T23:32:39.997Z,8.98
2022-07-30T23:35:08.951Z,7.60
2022-07-30T23:37:47.518Z,8.85
2022-07-30T23:40:18.750Z,7.05
2022-07-30T23:42:47.561Z,7.32
2022-07-30T23:45:15.117Z,7.62
2022-07-30T23:47:52.135Z,6.90
2022-07-30T23:50:30.999Z,7.00
2022-07-30T23:52:59.615Z,6.80
2022-07-30T23:55:27.292Z,8.10
2022-07-30T23:57:55.106Z,5.85
